createdAt,value
2018-07-26T00:00:46.719Z,7.93
2018-07-26T00:03:15.073Z,8.57
2018-07-26T00:05:43.395Z,8.67
2018-07-26T00:08:11.717Z,8.70
2018-07-26T00:10:40.069Z,9.10
2018-07-26T00:13:08.607Z,8.70
2018-07-26T00:15:36.956Z,8.70
2018-07-26T00:18:05.302Z,8.20
2018-07-26T00:20:33.612Z,8.57
2018-07-26T00:23:01.933Z,8.03
2018-07-26T00:25:30.244Z,8.57
2018-07-26T00:27:58.573Z,8.70
2018-07-26T00:30:26.895Z,8.53
2018-07-26T00:32:55.221Z,8.70
2018-07-26T00:35:23.525Z,8.63
2018-07-26T00:37:51.859Z,8.50
2018-07-26T00:40:20.183Z,8.50
2018-07-26T00:42:48.535Z,9.67
2018-07-26T00:45:16.858Z,9.47
2018-07-26T00:47:45.456Z,9.77
2018-07-26T00:50:13.769Z,9.37
2018-07-26T00:52:42.097Z,9.63
2018-07-26T00:55:10.495Z,10.27
2018-07-26T00:57:38.819Z,10.87
2018-07-26T01:00:07.199Z,9.20
2018-07-26T01:02:35.516Z,9.73
2018-07-26T01:05:03.901Z,9.17
2018-07-26T01:07:32.230Z,9.70
2018-07-26T01:10:00.541Z,8.20
2018-07-26T01:12:28.886Z,9.73
2018-07-26T01:14:57.199Z,9.30
2018-07-26T01:17:25.508Z,9.23
2018-07-26T01:19:53.823Z,9.07
2018-07-26T01:22:22.117Z,9.37
2018-07-26T01:24:50.466Z,9.20
2018-07-26T01:27:18.774Z,9.20
2018-07-26T01:29:47.114Z,9.70
2018-07-26T01:32:15.416Z,9.03
2018-07-26T01:34:43.748Z,8.60
2018-07-26T01:37:12.064Z,8.40
2018-07-26T01:39:41.138Z,8.80
2018-07-26T01:42:09.470Z,8.37
2018-07-26T01:44:37.785Z,8.87
2018-07-26T01:47:06.101Z,7.70
2018-07-26T01:49:34.447Z,9.03
2018-07-26T01:52:02.759Z,9.27
2018-07-26T01:54:31.085Z,8.07
2018-07-26T01:56:59.395Z,8.80
2018-07-26T01:59:27.808Z,8.60
2018-07-26T02:01:56.124Z,9.67
2018-07-26T02:04:24.459Z,9.17
2018-07-26T02:06:52.823Z,9.10
2018-07-26T02:09:21.157Z,8.80
2018-07-26T02:11:49.464Z,9.33
2018-07-26T02:14:23.223Z,9.33
2018-07-26T02:16:51.544Z,9.20
2018-07-26T02:19:19.873Z,9.50
2018-07-26T02:21:48.205Z,10.10
2018-07-26T02:24:16.529Z,9.27
2018-07-26T02:26:44.839Z,10.00
2018-07-26T02:29:13.171Z,9.80
2018-07-26T02:31:41.520Z,9.80
2018-07-26T02:34:09.851Z,10.27
2018-07-26T02:36:38.207Z,10.70
2018-07-26T02:39:08.073Z,11.10
2018-07-26T02:41:36.534Z,10.50
2018-07-26T02:44:05.013Z,9.97
2018-07-26T02:46:33.336Z,9.30
2018-07-26T02:49:01.668Z,9.87
2018-07-26T02:51:29.968Z,9.60
2018-07-26T02:53:58.290Z,9.30
2018-07-26T02:56:26.611Z,10.30
2018-07-26T02:58:54.951Z,9.00
2018-07-26T03:01:23.264Z,10.30
2018-07-26T03:03:51.605Z,11.10
2018-07-26T03:06:19.901Z,9.80
2018-07-26T03:08:48.317Z,9.40
2018-07-26T03:11:16.652Z,9.40
2018-07-26T03:13:44.960Z,9.70
2018-07-26T03:16:13.278Z,9.90
2018-07-26T03:18:41.564Z,9.80
2018-07-26T03:21:09.895Z,8.60
2018-07-26T03:23:38.310Z,8.70
2018-07-26T03:26:06.688Z,7.60
2018-07-26T03:28:34.997Z,7.30
2018-07-26T03:31:03.375Z,8.50
2018-07-26T03:33:31.673Z,8.30
2018-07-26T03:36:00.032Z,8.57
2018-07-26T03:38:28.338Z,7.60
2018-07-26T03:40:56.670Z,8.30
2018-07-26T03:43:25.014Z,8.47
2018-07-26T03:45:53.347Z,7.80
2018-07-26T03:48:21.639Z,7.97
2018-07-26T03:50:49.955Z,8.83
2018-07-26T03:53:18.268Z,7.40
2018-07-26T03:55:46.637Z,7.37
2018-07-26T03:58:14.963Z,7.20
2018-07-26T04:00:43.334Z,7.00
2018-07-26T04:03:11.716Z,6.93
2018-07-26T04:05:40.031Z,7.50
2018-07-26T04:08:08.387Z,7.03
2018-07-26T04:10:36.723Z,6.00
2018-07-26T04:13:05.043Z,7.07
2018-07-26T04:15:33.373Z,6.47
2018-07-26T04:18:04.959Z,5.90
2018-07-26T04:20:33.675Z,6.60
2018-07-26T04:23:02.273Z,6.10
2018-07-26T04:25:31.203Z,5.97
2018-07-26T04:27:59.691Z,6.33
2018-07-26T04:30:28.021Z,6.30
2018-07-26T04:32:56.343Z,5.60
2018-07-26T04:35:24.687Z,6.10
2018-07-26T04:37:53.421Z,5.87
2018-07-26T04:40:21.750Z,5.87
2018-07-26T04:42:50.060Z,5.83
2018-07-26T04:45:18.415Z,6.13
2018-07-26T04:47:46.793Z,6.40
2018-07-26T04:50:15.123Z,5.83
2018-07-26T04:52:43.502Z,6.73
2018-07-26T04:55:11.799Z,6.83
2018-07-26T04:57:40.123Z,6.57
2018-07-26T05:00:08.657Z,5.70
2018-07-26T05:02:37.295Z,5.40
2018-07-26T05:05:06.143Z,6.10
2018-07-26T05:07:34.560Z,5.63
2018-07-26T05:10:02.875Z,5.50
2018-07-26T05:12:31.227Z,5.40
2018-07-26T05:14:59.541Z,5.23
2018-07-26T05:17:27.874Z,5.10
2018-07-26T05:19:56.181Z,5.43
2018-07-26T05:22:24.531Z,4.87
2018-07-26T05:24:52.859Z,5.50
2018-07-26T05:27:21.188Z,5.13
2018-07-26T05:29:49.510Z,4.90
2018-07-26T05:32:17.845Z,4.40
2018-07-26T05:34:46.159Z,4.67
2018-07-26T05:37:14.469Z,4.40
2018-07-26T05:39:42.778Z,4.70
2018-07-26T05:42:11.111Z,4.93
2018-07-26T05:44:39.437Z,4.77
2018-07-26T05:47:07.868Z,4.90
2018-07-26T05:49:36.162Z,4.67
2018-07-26T05:52:04.501Z,4.53
2018-07-26T05:54:32.831Z,4.40
2018-07-26T05:57:01.153Z,4.67
2018-07-26T05:59:29.473Z,4.17
2018-07-26T06:01:57.854Z,4.80
2018-07-26T06:04:26.149Z,4.90
2018-07-26T06:06:54.495Z,4.60
2018-07-26T06:09:22.804Z,4.30
2018-07-26T06:11:51.127Z,5.17
2018-07-26T06:14:19.438Z,4.67
2018-07-26T06:16:47.804Z,4.70
2018-07-26T06:19:16.104Z,4.23
2018-07-26T06:21:44.428Z,4.27
2018-07-26T06:24:12.762Z,3.70
2018-07-26T06:26:41.141Z,3.87
2018-07-26T06:29:09.440Z,4.47
2018-07-26T06:31:37.764Z,4.43
2018-07-26T06:34:06.397Z,3.73
2018-07-26T06:36:34.726Z,4.17
2018-07-26T06:39:03.139Z,4.10
2018-07-26T06:41:31.492Z,4.20
2018-07-26T06:43:59.803Z,4.30
2018-07-26T06:46:28.126Z,4.50
2018-07-26T06:48:56.433Z,4.57
2018-07-26T06:51:24.784Z,4.87
2018-07-26T06:53:53.103Z,3.90
2018-07-26T06:56:21.445Z,4.97
2018-07-26T06:58:49.777Z,4.40
2018-07-26T07:01:18.121Z,4.10
2018-07-26T07:03:46.456Z,4.53
2018-07-26T07:06:14.818Z,4.00
2018-07-26T07:08:43.157Z,5.00
2018-07-26T07:11:11.473Z,4.83
2018-07-26T07:13:39.926Z,4.20
2018-07-26T07:16:08.261Z,3.97
2018-07-26T07:18:36.628Z,4.50
2018-07-26T07:21:05.132Z,4.37
2018-07-26T07:23:33.482Z,4.70
2018-07-26T07:26:01.865Z,4.50
2018-07-26T07:28:30.207Z,4.07
2018-07-26T07:30:58.559Z,4.00
2018-07-26T07:33:26.898Z,4.10
2018-07-26T07:35:55.216Z,4.77
2018-07-26T07:38:23.591Z,4.60
2018-07-26T07:40:51.923Z,4.17
2018-07-26T07:43:20.271Z,4.67
2018-07-26T07:45:48.643Z,4.53
2018-07-26T07:48:16.991Z,4.43
2018-07-26T07:50:45.312Z,4.40
2018-07-26T07:53:13.632Z,4.37
2018-07-26T07:55:41.955Z,4.43
2018-07-26T07:58:10.272Z,4.50
2018-07-26T08:00:38.607Z,4.43
2018-07-26T08:03:07.003Z,4.60
2018-07-26T08:05:35.346Z,4.30
2018-07-26T08:08:03.702Z,4.20
2018-07-26T08:10:32.005Z,4.27
2018-07-26T08:13:00.334Z,5.10
2018-07-26T08:15:28.636Z,4.23
2018-07-26T08:17:56.969Z,3.97
2018-07-26T08:20:25.290Z,4.20
2018-07-26T08:22:53.612Z,4.43
2018-07-26T08:25:21.919Z,4.27
2018-07-26T08:27:50.261Z,4.70
2018-07-26T08:30:18.577Z,4.50
2018-07-26T08:32:46.897Z,4.53
2018-07-26T08:35:15.291Z,4.40
2018-07-26T08:37:43.667Z,4.40
2018-07-26T08:40:12.080Z,4.37
2018-07-26T08:42:40.719Z,4.23
2018-07-26T08:45:09.051Z,4.40
2018-07-26T08:47:37.365Z,4.30
2018-07-26T08:50:06.277Z,4.23
2018-07-26T08:52:34.611Z,4.50
2018-07-26T08:55:03.045Z,4.33
2018-07-26T08:57:31.391Z,4.60
2018-07-26T08:59:59.684Z,4.27
2018-07-26T09:02:28.203Z,3.90
2018-07-26T09:04:56.521Z,4.50
2018-07-26T09:07:24.849Z,4.27
2018-07-26T09:09:53.217Z,4.20
2018-07-26T09:12:21.577Z,4.43
2018-07-26T09:14:49.910Z,4.30
2018-07-26T09:17:18.264Z,4.30
2018-07-26T09:19:46.584Z,4.20
2018-07-26T09:22:14.931Z,4.20
2018-07-26T09:24:43.438Z,4.33
2018-07-26T09:27:13.166Z,4.17
2018-07-26T09:29:41.529Z,3.97
2018-07-26T09:32:10.001Z,4.07
2018-07-26T09:34:38.319Z,4.10
2018-07-26T09:37:06.653Z,4.70
2018-07-26T09:39:34.988Z,3.73
2018-07-26T09:42:03.345Z,4.50
2018-07-26T09:44:31.656Z,3.70
2018-07-26T09:46:59.993Z,3.77
2018-07-26T09:49:28.345Z,3.43
2018-07-26T09:51:56.664Z,4.33
2018-07-26T09:54:24.984Z,3.87
2018-07-26T09:56:53.281Z,4.20
2018-07-26T09:59:21.891Z,4.50
2018-07-26T10:01:50.245Z,3.73
2018-07-26T10:04:18.579Z,3.80
2018-07-26T10:06:46.907Z,3.90
2018-07-26T10:09:15.251Z,3.47
2018-07-26T10:11:43.564Z,4.13
2018-07-26T10:14:11.881Z,4.33
2018-07-26T10:16:41.023Z,4.50
2018-07-26T10:19:09.359Z,4.20
2018-07-26T10:21:37.674Z,3.90
2018-07-26T10:24:06.204Z,3.80
2018-07-26T10:26:34.531Z,4.13
2018-07-26T10:29:02.937Z,4.03
2018-07-26T10:31:31.271Z,3.93
2018-07-26T10:33:59.603Z,3.90
2018-07-26T10:36:27.929Z,3.67
2018-07-26T10:38:56.280Z,4.30
2018-07-26T10:41:24.815Z,4.07
2018-07-26T10:43:53.364Z,4.10
2018-07-26T10:46:22.489Z,3.97
2018-07-26T10:48:50.835Z,3.70
2018-07-26T10:51:19.155Z,4.10
2018-07-26T10:53:47.483Z,4.13
2018-07-26T10:56:15.803Z,3.83
2018-07-26T10:58:44.141Z,4.17
2018-07-26T11:01:12.527Z,4.70
2018-07-26T11:03:40.903Z,4.77
2018-07-26T11:06:09.238Z,4.40
2018-07-26T11:08:37.560Z,4.03
2018-07-26T11:11:06.121Z,4.20
2018-07-26T11:13:34.574Z,4.10
2018-07-26T11:16:02.969Z,4.30
2018-07-26T11:18:31.287Z,4.20
2018-07-26T11:20:59.612Z,4.10
2018-07-26T11:23:28.141Z,3.90
2018-07-26T11:25:56.449Z,3.90
2018-07-26T11:28:24.767Z,4.60
2018-07-26T11:30:53.518Z,4.23
2018-07-26T11:33:21.812Z,3.90
2018-07-26T11:35:50.137Z,3.87
2018-07-26T11:38:18.424Z,4.20
2018-07-26T11:40:46.760Z,3.53
2018-07-26T11:43:15.067Z,4.13
2018-07-26T11:45:43.401Z,3.80
2018-07-26T11:48:11.707Z,3.90
2018-07-26T11:50:40.034Z,4.47
2018-07-26T11:53:08.347Z,3.83
2018-07-26T11:55:36.696Z,3.40
2018-07-26T11:58:05.276Z,3.53
2018-07-26T12:00:33.604Z,4.07
2018-07-26T12:03:01.923Z,3.83
2018-07-26T12:05:30.240Z,3.53
2018-07-26T12:07:58.529Z,3.70
2018-07-26T12:10:26.870Z,3.40
2018-07-26T12:12:55.176Z,3.20
2018-07-26T12:15:23.492Z,3.63
2018-07-26T12:17:51.867Z,3.70
2018-07-26T12:20:20.224Z,3.97
2018-07-26T12:22:48.528Z,3.30
2018-07-26T12:25:16.857Z,3.50
2018-07-26T12:27:45.339Z,3.17
2018-07-26T12:30:13.701Z,3.63
2018-07-26T12:32:42.017Z,3.57
2018-07-26T12:35:10.351Z,4.10
2018-07-26T12:37:38.727Z,3.37
2018-07-26T12:40:07.071Z,3.33
2018-07-26T12:42:35.402Z,3.40
2018-07-26T12:45:03.778Z,3.70
2018-07-26T12:47:32.251Z,3.43
2018-07-26T12:50:00.455Z,3.37
2018-07-26T12:52:28.754Z,3.20
2018-07-26T12:54:57.069Z,3.40
2018-07-26T12:57:25.379Z,3.90
2018-07-26T12:59:53.727Z,3.90
2018-07-26T13:02:22.052Z,3.40
2018-07-26T13:04:50.365Z,3.17
2018-07-26T13:07:18.704Z,3.37
2018-07-26T13:09:47.044Z,3.77
2018-07-26T13:12:15.445Z,4.00
2018-07-26T13:14:43.869Z,3.57
2018-07-26T13:17:12.920Z,3.43
2018-07-26T13:19:41.375Z,3.70
2018-07-26T13:22:09.729Z,3.73
2018-07-26T13:24:38.101Z,3.63
2018-07-26T13:27:07.475Z,3.57
2018-07-26T13:29:35.819Z,3.97
2018-07-26T13:32:04.182Z,3.40
2018-07-26T13:34:32.495Z,3.73
2018-07-26T13:37:00.805Z,3.40
2018-07-26T13:39:29.144Z,3.67
2018-07-26T13:41:57.507Z,3.20
2018-07-26T13:44:25.819Z,3.60
2018-07-26T13:46:54.164Z,3.23
2018-07-26T13:49:22.479Z,3.77
2018-07-26T13:51:50.819Z,4.23
2018-07-26T13:54:19.163Z,3.77
2018-07-26T13:56:47.468Z,3.60
2018-07-26T13:59:16.867Z,3.60
2018-07-26T14:01:45.229Z,3.50
2018-07-26T14:04:13.563Z,3.33
2018-07-26T14:06:41.895Z,3.70
2018-07-26T14:09:11.436Z,3.23
2018-07-26T14:11:40.041Z,3.47
2018-07-26T14:14:08.352Z,3.73
2018-07-26T14:16:36.695Z,4.43
2018-07-26T14:19:05.744Z,4.03
2018-07-26T14:21:34.114Z,3.90
2018-07-26T14:24:03.405Z,4.60
2018-07-26T14:26:32.341Z,4.00
2018-07-26T14:29:00.685Z,3.83
2018-07-26T14:31:29.098Z,4.00
2018-07-26T14:33:57.445Z,4.10
2018-07-26T14:36:26.011Z,3.97
2018-07-26T14:38:54.337Z,4.10
2018-07-26T14:41:22.676Z,3.90
2018-07-26T14:43:50.998Z,4.60
2018-07-26T14:46:19.335Z,4.40
2018-07-26T14:48:47.655Z,4.13
2018-07-26T14:51:16.016Z,4.03
2018-07-26T14:53:44.323Z,4.37
2018-07-26T14:56:12.661Z,4.63
2018-07-26T14:58:41.061Z,3.77
2018-07-26T15:01:09.598Z,4.00
2018-07-26T15:03:37.953Z,3.70
2018-07-26T15:06:06.384Z,3.90
2018-07-26T15:08:34.664Z,3.43
2018-07-26T15:11:03.031Z,3.57
2018-07-26T15:13:31.367Z,3.57
2018-07-26T15:15:59.840Z,3.57
2018-07-26T15:18:28.168Z,3.13
2018-07-26T15:20:56.507Z,3.40
2018-07-26T15:23:24.878Z,3.57
2018-07-26T15:25:53.207Z,3.70
2018-07-26T15:28:21.524Z,3.60
2018-07-26T15:30:49.961Z,3.03
2018-07-26T15:33:18.290Z,3.50
2018-07-26T15:35:46.605Z,3.30
2018-07-26T15:38:14.974Z,3.40
2018-07-26T15:40:43.297Z,3.30
2018-07-26T15:43:11.663Z,3.40
2018-07-26T15:45:40.003Z,3.10
2018-07-26T15:48:08.346Z,3.60
2018-07-26T15:50:36.805Z,3.20
2018-07-26T15:53:05.176Z,3.00
2018-07-26T15:55:33.589Z,3.10
2018-07-26T15:58:02.197Z,3.50
2018-07-26T16:00:30.523Z,3.90
2018-07-26T16:02:59.466Z,3.40
2018-07-26T16:05:27.522Z,3.03
2018-07-26T16:07:55.961Z,2.83
2018-07-26T16:10:24.263Z,3.10
2018-07-26T16:12:52.609Z,2.90
2018-07-26T16:15:20.913Z,3.23
2018-07-26T16:17:49.360Z,2.90
2018-07-26T16:20:17.588Z,2.87
2018-07-26T16:22:45.945Z,3.43
2018-07-26T16:25:14.268Z,2.90
2018-07-26T16:27:42.620Z,3.40
2018-07-26T16:30:12.461Z,2.70
2018-07-26T16:32:40.968Z,3.27
2018-07-26T16:35:09.552Z,3.10
2018-07-26T16:37:37.883Z,2.80
2018-07-26T16:40:06.270Z,2.93
2018-07-26T16:42:34.575Z,2.77
2018-07-26T16:45:03.099Z,2.30
2018-07-26T16:47:31.436Z,3.30
2018-07-26T16:49:59.761Z,4.00
2018-07-26T16:52:28.084Z,3.07
2018-07-26T16:54:56.395Z,3.10
2018-07-26T16:57:24.911Z,2.87
2018-07-26T16:59:53.240Z,2.50
2018-07-26T17:02:21.626Z,2.70
2018-07-26T17:04:50.019Z,2.70
2018-07-26T17:07:18.352Z,3.73
2018-07-26T17:09:46.665Z,3.17
2018-07-26T17:12:15.030Z,3.10
2018-07-26T17:14:43.329Z,2.97
2018-07-26T17:17:11.687Z,3.00
2018-07-26T17:19:40.021Z,3.17
2018-07-26T17:22:08.511Z,3.40
2018-07-26T17:24:37.122Z,3.13
2018-07-26T17:27:05.453Z,3.40
2018-07-26T17:29:33.814Z,2.60
2018-07-26T17:32:02.171Z,3.20
2018-07-26T17:34:30.485Z,3.07
2018-07-26T17:36:58.789Z,3.13
2018-07-26T17:39:27.126Z,3.10
2018-07-26T17:41:55.449Z,4.00
2018-07-26T17:44:23.801Z,3.20
2018-07-26T17:46:52.116Z,10.87
2018-07-26T17:49:20.542Z,4.00
2018-07-26T17:51:48.841Z,3.20
2018-07-26T17:54:16.916Z,3.50
2018-07-26T17:56:45.324Z,3.53
2018-07-26T17:59:13.601Z,3.93
2018-07-26T18:01:41.923Z,7.47
2018-07-26T18:04:10.257Z,6.60
2018-07-26T18:06:38.575Z,3.73
2018-07-26T18:09:07.875Z,4.03
2018-07-26T18:11:36.220Z,4.10
2018-07-26T18:14:04.540Z,3.63
2018-07-26T18:16:32.909Z,3.47
2018-07-26T18:19:01.229Z,3.60
2018-07-26T18:21:29.548Z,3.70
2018-07-26T18:23:57.861Z,3.20
2018-07-26T18:26:26.172Z,3.27
2018-07-26T18:28:54.484Z,3.53
2018-07-26T18:31:22.835Z,3.13
2018-07-26T18:33:51.119Z,2.80
2018-07-26T18:36:19.414Z,2.77
2018-07-26T18:38:47.779Z,3.43
2018-07-26T18:41:16.083Z,3.77
2018-07-26T18:43:44.471Z,3.23
2018-07-26T18:46:12.721Z,3.83
2018-07-26T18:48:41.041Z,3.53
2018-07-26T18:51:09.349Z,3.87
2018-07-26T18:53:37.703Z,3.80
2018-07-26T18:56:06.078Z,3.27
2018-07-26T18:58:34.346Z,4.13
2018-07-26T19:01:02.663Z,4.60
2018-07-26T19:03:31.032Z,3.47
2018-07-26T19:05:59.337Z,4.07
2018-07-26T19:08:27.667Z,3.77
2018-07-26T19:10:56.004Z,3.53
2018-07-26T19:13:24.367Z,3.90
2018-07-26T19:15:52.685Z,4.30
2018-07-26T19:18:21.067Z,3.77
2018-07-26T19:20:49.361Z,4.10
2018-07-26T19:23:17.673Z,3.23
2018-07-26T19:25:45.995Z,4.40
2018-07-26T19:28:14.322Z,3.40
2018-07-26T19:30:42.693Z,4.13
2018-07-26T19:33:11.045Z,3.87
2018-07-26T19:35:39.859Z,3.40
2018-07-26T19:38:08.247Z,3.23
2018-07-26T19:40:36.747Z,2.70
2018-07-26T19:43:05.096Z,3.43
2018-07-26T19:45:33.439Z,4.40
2018-07-26T19:48:01.740Z,3.13
2018-07-26T19:50:30.109Z,3.80
2018-07-26T19:52:58.428Z,3.30
2018-07-26T19:55:27.983Z,3.10
2018-07-26T19:57:56.299Z,3.53
2018-07-26T20:00:24.657Z,3.30
2018-07-26T20:02:52.992Z,4.27
2018-07-26T20:05:22.324Z,3.33
2018-07-26T20:07:50.661Z,3.47
2018-07-26T20:10:18.990Z,3.47
2018-07-26T20:12:53.876Z,4.17
2018-07-26T20:15:22.279Z,3.40
2018-07-26T20:17:50.652Z,2.93
2018-07-26T20:20:19.025Z,3.37
2018-07-26T20:22:47.356Z,3.80
2018-07-26T20:25:15.669Z,3.60
2018-07-26T20:27:43.960Z,3.30
2018-07-26T20:30:12.295Z,3.40
2018-07-26T20:32:40.629Z,4.00
2018-07-26T20:35:09.513Z,3.40
2018-07-26T20:37:38.001Z,3.80
2018-07-26T20:40:08.185Z,3.37
2018-07-26T20:42:36.636Z,3.50
2018-07-26T20:45:07.067Z,3.50
2018-07-26T20:47:35.391Z,3.73
2018-07-26T20:50:03.809Z,4.10
2018-07-26T20:52:32.532Z,4.00
2018-07-26T20:55:00.867Z,3.30
2018-07-26T20:57:29.160Z,3.43
2018-07-26T20:59:57.491Z,3.10
2018-07-26T21:02:25.815Z,3.57
2018-07-26T21:04:54.141Z,3.60
2018-07-26T21:07:22.506Z,3.47
2018-07-26T21:09:50.992Z,3.40
2018-07-26T21:12:19.438Z,3.50
2018-07-26T21:14:47.767Z,3.13
2018-07-26T21:17:16.087Z,3.10
2018-07-26T21:19:44.408Z,2.80
2018-07-26T21:22:12.711Z,3.70
2018-07-26T21:24:41.058Z,3.80
2018-07-26T21:27:09.360Z,3.40
2018-07-26T21:29:37.683Z,3.60
2018-07-26T21:32:06.052Z,3.80
2018-07-26T21:34:34.562Z,4.17
2018-07-26T21:37:02.936Z,3.80
2018-07-26T21:39:31.242Z,3.53
2018-07-26T21:41:59.573Z,4.00
2018-07-26T21:44:27.944Z,3.47
2018-07-26T21:46:56.240Z,3.30
2018-07-26T21:49:24.877Z,3.40
2018-07-26T21:51:53.173Z,3.30
2018-07-26T21:54:21.532Z,3.07
2018-07-26T21:56:49.920Z,3.53
2018-07-26T21:59:18.234Z,3.60
2018-07-26T22:01:46.552Z,3.43
2018-07-26T22:04:14.857Z,3.23
2018-07-26T22:06:43.199Z,3.00
2018-07-26T22:09:12.157Z,3.30
2018-07-26T22:11:40.537Z,3.47
2018-07-26T22:14:09.259Z,3.50
2018-07-26T22:16:37.597Z,3.40
2018-07-26T22:19:05.955Z,3.50
2018-07-26T22:21:34.297Z,3.30
2018-07-26T22:24:02.604Z,3.47
2018-07-26T22:26:30.935Z,3.33
2018-07-26T22:28:59.258Z,3.50
2018-07-26T22:31:28.485Z,3.20
2018-07-26T22:33:56.791Z,3.23
2018-07-26T22:36:25.132Z,3.50
2018-07-26T22:38:53.471Z,3.63
2018-07-26T22:41:21.827Z,3.40
2018-07-26T22:43:50.121Z,3.47
2018-07-26T22:46:18.473Z,3.17
2018-07-26T22:48:46.757Z,3.40
2018-07-26T22:51:15.087Z,3.30
2018-07-26T22:53:43.389Z,4.03
2018-07-26T22:56:11.760Z,3.00
2018-07-26T22:58:40.068Z,3.13
2018-07-26T23:01:08.396Z,3.07
2018-07-26T23:03:36.719Z,3.50
2018-07-26T23:06:05.197Z,3.40
2018-07-26T23:08:33.511Z,3.00
2018-07-26T23:11:01.833Z,2.70
2018-07-26T23:13:30.134Z,2.87
2018-07-26T23:15:58.440Z,3.17
2018-07-26T23:18:26.718Z,3.47
2018-07-26T23:20:55.063Z,3.20
2018-07-26T23:23:23.371Z,3.43
2018-07-26T23:25:51.735Z,3.50
2018-07-26T23:28:20.038Z,3.10
2018-07-26T23:30:48.338Z,3.60
2018-07-26T23:33:16.695Z,3.70
2018-07-26T23:35:45.395Z,3.87
2018-07-26T23:38:13.712Z,3.50
2018-07-26T23:40:42.009Z,3.50
2018-07-26T23:43:10.313Z,3.77
2018-07-26T23:45:38.611Z,3.50
2018-07-26T23:48:06.936Z,4.03
2018-07-26T23:50:35.248Z,3.60
2018-07-26T23:53:03.600Z,3.40
2018-07-26T23:55:31.896Z,4.00
2018-07-26T23:58:00.215Z,3.60
